createdAt,value
2018-05-16T00:00:57.175Z,56.64
2018-05-16T00:04:06.943Z,55.18
2018-05-16T00:05:06.943Z,53.96
2018-05-16T00:06:06.541Z,53.47
2018-05-16T00:07:07.442Z,53.96
2018-05-16T00:08:06.788Z,58.35
2018-05-16T00:09:07.443Z,53.96
2018-05-16T00:10:07.040Z,52.98
2018-05-16T00:11:07.942Z,51.51
2018-05-16T00:12:07.942Z,54.44
2018-05-16T00:13:07.942Z,53.96
2018-05-16T00:14:08.443Z,52.49
2018-05-16T00:17:42.826Z,51.03
2018-05-16T00:18:39.829Z,46.14
2018-05-16T00:20:03.329Z,48.58
2018-05-16T00:20:40.328Z,47.36
2018-05-16T00:21:40.328Z,48.10
2018-05-16T00:25:11.949Z,48.83
2018-05-16T00:26:11.956Z,46.63
2018-05-16T00:27:12.450Z,47.12
2018-05-16T00:28:18.450Z,47.36
2018-05-16T00:29:12.450Z,44.92
2018-05-16T00:30:18.450Z,48.83
2018-05-16T00:31:12.050Z,52.73
2018-05-16T00:32:12.960Z,45.17
2018-05-16T00:33:12.950Z,46.39
2018-05-16T00:34:12.955Z,47.12
2018-05-16T00:35:13.457Z,45.90
2018-05-16T00:36:34.462Z,44.43
2018-05-16T00:37:13.455Z,43.70
2018-05-16T00:38:13.452Z,45.41
2018-05-16T00:39:36.391Z,45.90
2018-05-16T00:40:34.950Z,44.43
2018-05-16T00:41:34.949Z,45.65
2018-05-16T00:42:13.301Z,45.17
2018-05-16T00:43:34.951Z,47.36
2018-05-16T00:44:19.382Z,47.85
2018-05-16T00:45:14.449Z,45.65
2018-05-16T00:46:14.460Z,46.88
2018-05-16T00:47:14.527Z,44.92
2018-05-16T00:48:35.951Z,54.93
2018-05-16T00:49:14.949Z,63.72
2018-05-16T00:50:14.175Z,47.36
2018-05-16T00:51:14.947Z,44.92
2018-05-16T00:52:14.949Z,45.41
2018-05-16T00:53:36.457Z,44.68
2018-05-16T00:54:15.473Z,45.41
2018-05-16T00:55:15.449Z,46.39
2018-05-16T00:56:15.449Z,44.92
2018-05-16T00:57:17.948Z,46.88
2018-05-16T00:58:38.404Z,44.92
2018-05-16T00:59:16.880Z,53.47
2018-05-16T01:00:15.949Z,45.90
2018-05-16T01:01:16.444Z,50.29
2018-05-16T01:02:22.464Z,47.85
2018-05-16T01:03:16.458Z,45.17
2018-05-16T01:04:16.449Z,43.95
2018-05-16T01:05:16.046Z,44.43
2018-05-16T01:06:17.950Z,45.17
2018-05-16T01:07:17.946Z,47.61
2018-05-16T01:08:37.950Z,44.68
2018-05-16T01:09:17.448Z,44.92
2018-05-16T01:10:39.443Z,43.70
2018-05-16T01:11:17.450Z,44.19
2018-05-16T01:12:17.450Z,44.92
2018-05-16T01:13:19.381Z,43.70
2018-05-16T01:14:17.948Z,47.85
2018-05-16T01:15:17.948Z,46.88
2018-05-16T01:16:19.418Z,44.19
2018-05-16T01:19:49.679Z,46.88
2018-05-16T01:20:49.679Z,44.43
2018-05-16T01:21:50.175Z,44.19
2018-05-16T01:22:57.180Z,46.39
2018-05-16T01:23:52.135Z,44.68
2018-05-16T01:24:50.180Z,45.90
2018-05-16T01:25:50.690Z,44.19
2018-05-16T01:27:12.635Z,44.43
2018-05-16T01:27:50.678Z,43.70
2018-05-16T01:28:50.155Z,44.68
2018-05-16T01:32:22.429Z,44.19
2018-05-16T01:33:22.422Z,45.65
2018-05-16T01:34:23.925Z,43.95
2018-05-16T01:35:22.935Z,45.41
2018-05-16T01:36:22.926Z,43.95
2018-05-16T01:37:22.927Z,44.19
2018-05-16T01:38:46.432Z,43.46
2018-05-16T01:39:24.359Z,45.65
2018-05-16T01:40:24.860Z,45.90
2018-05-16T01:41:22.905Z,45.17
2018-05-16T01:42:44.926Z,43.46
2018-05-16T01:43:23.922Z,44.68
2018-05-16T01:44:23.928Z,43.21
2018-05-16T01:45:28.858Z,44.19
2018-05-16T01:46:45.427Z,43.70
2018-05-16T01:47:24.425Z,45.90
2018-05-16T01:48:45.428Z,44.68
2018-05-16T01:49:24.428Z,84.96
2018-05-16T01:50:45.008Z,43.46
2018-05-16T01:51:24.926Z,43.95
2018-05-16T01:52:24.929Z,47.36
2018-05-16T01:53:24.399Z,43.70
2018-05-16T01:54:25.427Z,43.70
2018-05-16T01:55:25.429Z,45.65
2018-05-16T01:56:25.427Z,52.98
2018-05-16T01:57:25.427Z,47.85
2018-05-16T01:58:47.879Z,43.46
2018-05-16T01:59:26.896Z,43.95
2018-05-16T02:00:46.946Z,43.70
2018-05-16T02:01:25.301Z,43.70
2018-05-16T02:02:25.928Z,43.70
2018-05-16T02:03:25.554Z,44.68
2018-05-16T02:04:25.690Z,44.68
2018-05-16T02:05:47.426Z,46.14
2018-05-16T02:06:40.425Z,43.95
2018-05-16T02:07:26.927Z,45.17
2018-05-16T02:08:47.926Z,44.19
2018-05-16T02:09:26.930Z,84.47
2018-05-16T02:10:26.932Z,47.36
2018-05-16T02:11:27.426Z,50.05
2018-05-16T02:12:26.654Z,44.68
2018-05-16T02:13:27.425Z,42.72
2018-05-16T02:14:27.425Z,45.17
2018-05-16T02:15:29.925Z,43.95
2018-05-16T02:16:27.149Z,45.90
2018-05-16T02:17:27.925Z,45.17
2018-05-16T02:18:27.920Z,43.46
2018-05-16T02:19:28.432Z,44.19
2018-05-16T02:20:28.425Z,43.95
2018-05-16T02:21:28.444Z,43.95
2018-05-16T02:25:00.051Z,43.95
2018-05-16T02:26:00.058Z,43.70
2018-05-16T02:33:34.735Z,43.46
2018-05-16T02:34:34.736Z,44.19
2018-05-16T02:35:56.250Z,44.92
2018-05-16T02:36:55.449Z,86.43
2018-05-16T02:37:55.527Z,46.39
2018-05-16T02:38:35.236Z,46.88
2018-05-16T02:39:35.235Z,87.16
2018-05-16T02:40:35.735Z,59.57
2018-05-16T02:41:56.736Z,59.33
2018-05-16T02:42:35.735Z,58.84
2018-05-16T02:43:41.667Z,65.67
2018-05-16T02:44:57.235Z,83.01
2018-05-16T02:45:57.234Z,63.72
2018-05-16T02:49:07.763Z,66.41
2018-05-16T02:50:07.750Z,63.23
2018-05-16T02:51:07.347Z,63.72
2018-05-16T02:52:08.250Z,63.96
2018-05-16T02:53:07.596Z,64.70
2018-05-16T02:54:08.250Z,64.21
2018-05-16T02:55:29.762Z,61.04
2018-05-16T02:56:08.299Z,60.06
2018-05-16T02:57:08.083Z,61.28
2018-05-16T02:58:29.749Z,62.01
2018-05-16T02:59:08.751Z,60.55
2018-05-16T03:00:30.263Z,80.81
2018-05-16T03:01:30.247Z,64.94
2018-05-16T03:02:15.258Z,61.77
2018-05-16T03:03:09.249Z,61.52
2018-05-16T03:04:09.747Z,64.45
2018-05-16T03:05:09.753Z,68.85
2018-05-16T03:06:11.750Z,62.26
2018-05-16T03:07:09.750Z,63.96
2018-05-16T03:11:05.017Z,64.21
2018-05-16T03:14:13.645Z,72.02
2018-05-16T03:15:20.643Z,83.98
2018-05-16T03:16:35.145Z,58.59
2018-05-16T03:17:14.152Z,62.01
2018-05-16T03:18:15.121Z,65.43
2018-05-16T03:19:16.577Z,82.52
2018-05-16T03:22:45.865Z,64.94
2018-05-16T03:23:46.868Z,80.08
2018-05-16T03:25:06.478Z,66.16
2018-05-16T03:26:10.367Z,57.37
2018-05-16T03:26:46.391Z,57.62
2018-05-16T03:27:46.392Z,82.52
2018-05-16T03:28:46.892Z,58.11
2018-05-16T03:29:46.891Z,59.08
2018-05-16T03:30:46.899Z,62.01
2018-05-16T03:32:07.899Z,84.96
2018-05-16T03:32:47.396Z,58.84
2018-05-16T03:33:47.397Z,62.01
2018-05-16T03:34:47.425Z,83.74
2018-05-16T03:38:40.069Z,83.25
2018-05-16T03:39:19.073Z,60.55
2018-05-16T03:40:40.568Z,62.74
2018-05-16T03:41:40.569Z,85.45
2018-05-16T03:42:42.001Z,60.55
2018-05-16T03:43:19.042Z,64.45
2018-05-16T03:44:41.067Z,54.20
2018-05-16T03:45:20.071Z,52.49
2018-05-16T03:46:20.069Z,63.48
2018-05-16T03:47:19.540Z,84.72
2018-05-16T03:48:40.617Z,87.16
2018-05-16T03:49:41.568Z,52.49
2018-05-16T03:50:41.581Z,83.01
2018-05-16T03:51:41.568Z,57.62
2018-05-16T03:52:22.535Z,68.36
2018-05-16T03:56:13.297Z,53.71
2018-05-16T03:57:15.226Z,83.50
2018-05-16T04:00:24.050Z,85.94
2018-05-16T04:01:24.047Z,87.16
2018-05-16T04:02:24.086Z,83.98
2018-05-16T04:03:24.548Z,84.72
2018-05-16T04:04:24.545Z,58.59
2018-05-16T04:05:45.549Z,86.43
2018-05-16T04:06:24.547Z,84.23
2018-05-16T04:07:25.044Z,80.81
2018-05-16T04:10:56.936Z,86.18
2018-05-16T04:11:56.938Z,89.11
2018-05-16T04:12:56.557Z,53.71
2018-05-16T04:16:49.815Z,81.30
2018-05-16T04:17:28.816Z,59.33
2018-05-16T04:21:22.590Z,85.21
2018-05-16T04:22:00.582Z,81.54
2018-05-16T04:23:24.099Z,55.91
2018-05-16T04:26:33.927Z,79.59
2018-05-16T04:27:32.495Z,81.54
2018-05-16T04:31:04.252Z,82.03
2018-05-16T04:32:04.253Z,85.45
2018-05-16T04:33:06.763Z,87.89
2018-05-16T04:34:05.750Z,85.69
2018-05-16T04:35:06.184Z,84.23
2018-05-16T04:36:04.754Z,86.43
2018-05-16T04:37:08.713Z,55.18
2018-05-16T04:40:36.588Z,49.80
2018-05-16T04:41:36.588Z,87.40
2018-05-16T04:42:57.167Z,86.18
2018-05-16T04:43:58.084Z,87.16
2018-05-16T04:44:37.086Z,83.98
2018-05-16T04:45:37.088Z,85.21
2018-05-16T04:46:37.090Z,52.98
2018-05-16T04:47:57.672Z,85.94
2018-05-16T04:48:37.588Z,75.20
2018-05-16T04:49:37.593Z,55.42
2018-05-16T04:50:37.066Z,86.91
2018-05-16T04:51:58.144Z,83.25
2018-05-16T04:52:38.087Z,62.01
2018-05-16T04:53:38.093Z,86.43
2018-05-16T04:54:38.082Z,58.84
2018-05-16T04:55:38.084Z,89.84
2018-05-16T04:56:59.591Z,87.89
2018-05-16T04:57:38.587Z,60.55
2018-05-16T04:58:59.629Z,84.96
2018-05-16T04:59:38.593Z,54.69
2018-05-16T05:03:10.351Z,85.69
2018-05-16T05:04:10.361Z,84.96
2018-05-16T05:05:12.784Z,83.98
2018-05-16T05:08:42.212Z,64.45
2018-05-16T05:09:44.146Z,84.23
2018-05-16T05:11:05.740Z,85.45
2018-05-16T05:14:35.130Z,81.05
2018-05-16T05:15:14.130Z,83.01
2018-05-16T05:20:17.311Z,61.04
2018-05-16T05:21:20.247Z,86.18
2018-05-16T05:22:39.809Z,85.69
2018-05-16T05:23:23.810Z,84.23
2018-05-16T05:24:39.764Z,86.18
2018-05-16T05:25:17.814Z,87.40
2018-05-16T05:26:18.744Z,82.76
2018-05-16T05:29:49.553Z,82.28
2018-05-16T05:30:49.548Z,87.16
2018-05-16T05:31:50.049Z,84.72
2018-05-16T05:32:50.051Z,83.98
2018-05-16T05:33:50.048Z,84.96
2018-05-16T05:34:50.041Z,83.98
2018-05-16T05:35:49.646Z,85.94
2018-05-16T05:36:50.571Z,87.89
2018-05-16T05:37:50.549Z,89.11
2018-05-16T05:38:50.548Z,84.96
2018-05-16T05:39:51.056Z,84.96
2018-05-16T05:40:51.049Z,80.08
2018-05-16T05:41:51.052Z,84.47
2018-05-16T05:42:51.048Z,89.84
2018-05-16T05:46:22.810Z,83.98
2018-05-16T05:47:22.809Z,57.86
2018-05-16T05:48:23.315Z,87.65
2018-05-16T05:49:23.315Z,86.91
2018-05-16T05:52:55.755Z,86.91
2018-05-16T05:53:54.812Z,56.40
2018-05-16T05:54:55.758Z,86.43
2018-05-16T05:55:55.312Z,84.72
2018-05-16T05:56:55.323Z,86.67
2018-05-16T05:57:56.251Z,83.25
2018-05-16T05:58:55.314Z,85.21
2018-05-16T06:01:01.814Z,86.91
2018-05-16T06:01:56.787Z,60.06
2018-05-16T06:02:55.813Z,84.47
2018-05-16T06:03:55.829Z,81.05
2018-05-16T06:05:17.406Z,83.01
2018-05-16T06:05:55.550Z,86.91
2018-05-16T06:06:56.312Z,88.13
2018-05-16T06:07:55.785Z,84.96
2018-05-16T06:11:28.045Z,81.79
2018-05-16T06:12:42.073Z,85.21
2018-05-16T06:15:59.853Z,84.72
2018-05-16T06:17:20.801Z,53.71
2018-05-16T06:18:03.262Z,83.50
2018-05-16T06:18:59.487Z,62.26
2018-05-16T06:22:52.440Z,85.94
2018-05-16T06:29:06.580Z,85.45
2018-05-16T06:30:06.062Z,58.11
2018-05-16T06:31:08.026Z,85.21
2018-05-16T06:32:07.080Z,83.50
2018-05-16T06:33:07.087Z,88.62
2018-05-16T06:34:07.081Z,79.59
2018-05-16T06:35:07.079Z,86.43
2018-05-16T06:36:28.590Z,83.25
2018-05-16T06:37:07.583Z,83.01
2018-05-16T06:38:07.599Z,84.47
2018-05-16T06:39:07.668Z,58.11
2018-05-16T06:40:10.080Z,90.58
2018-05-16T06:41:08.083Z,84.47
2018-05-16T06:42:14.081Z,52.73
2018-05-16T06:43:08.081Z,53.47
2018-05-16T06:46:39.832Z,84.23
2018-05-16T06:47:39.834Z,83.50
2018-05-16T06:51:38.612Z,83.50
2018-05-16T06:52:34.615Z,83.01
2018-05-16T06:53:12.112Z,59.81
2018-05-16T06:54:26.111Z,85.21
2018-05-16T06:55:11.462Z,85.69
2018-05-16T06:56:11.568Z,85.45
2018-05-16T06:59:57.828Z,60.30
2018-05-16T07:00:43.301Z,88.62
2018-05-16T07:02:09.263Z,81.05
2018-05-16T07:02:50.330Z,54.69
2018-05-16T07:03:44.325Z,86.91
2018-05-16T07:04:43.827Z,82.52
2018-05-16T07:06:04.905Z,86.18
2018-05-16T07:07:05.832Z,85.21
2018-05-16T07:07:44.071Z,85.94
2018-05-16T07:08:44.833Z,81.79
2018-05-16T07:10:05.891Z,83.98
2018-05-16T07:11:08.333Z,85.45
2018-05-16T07:11:45.330Z,84.96
2018-05-16T07:13:08.330Z,85.45
2018-05-16T07:13:45.328Z,79.35
2018-05-16T07:15:06.837Z,85.21
2018-05-16T07:15:45.830Z,85.45
2018-05-16T07:16:45.828Z,82.52
2018-05-16T07:17:45.307Z,81.54
2018-05-16T07:19:07.334Z,83.25
2018-05-16T07:19:45.561Z,81.54
2018-05-16T07:20:45.654Z,87.89
2018-05-16T07:21:47.767Z,62.26
2018-05-16T07:23:07.830Z,83.50
2018-05-16T07:24:06.914Z,68.36
2018-05-16T07:25:09.762Z,72.02
2018-05-16T07:26:08.832Z,81.05
2018-05-16T07:26:46.830Z,80.32
2018-05-16T07:30:18.502Z,81.30
2018-05-16T07:31:18.514Z,83.74
2018-05-16T07:32:18.112Z,82.76
2018-05-16T07:33:41.470Z,65.19
2018-05-16T07:34:22.437Z,82.28
2018-05-16T07:35:19.024Z,85.45
2018-05-16T07:38:50.762Z,86.67
2018-05-16T07:39:51.760Z,85.21
2018-05-16T07:41:05.273Z,83.50
2018-05-16T07:41:51.297Z,76.66
2018-05-16T07:42:50.645Z,61.52
2018-05-16T07:43:51.263Z,79.83
2018-05-16T07:44:53.763Z,85.45
2018-05-16T07:45:57.762Z,84.96
2018-05-16T07:46:51.505Z,86.43
2018-05-16T07:47:51.773Z,84.23
2018-05-16T07:48:53.244Z,84.72
2018-05-16T07:52:25.569Z,77.88
2018-05-16T07:53:44.641Z,84.72
2018-05-16T07:54:23.249Z,59.57
2018-05-16T07:55:24.137Z,84.23
2018-05-16T07:59:09.652Z,71.53
2018-05-16T08:00:06.451Z,80.81
2018-05-16T08:03:27.411Z,83.74
2018-05-16T08:04:28.838Z,56.88
2018-05-16T08:05:33.913Z,77.64
2018-05-16T08:06:29.904Z,84.72
2018-05-16T08:07:48.906Z,78.61
2018-05-16T08:08:27.906Z,62.50
2018-05-16T08:09:48.490Z,82.03
2018-05-16T08:10:49.409Z,82.52
2018-05-16T08:11:28.407Z,67.87
2018-05-16T08:12:28.406Z,68.12
2018-05-16T08:13:28.406Z,84.23
2018-05-16T08:14:48.990Z,82.52
2018-05-16T08:15:52.339Z,71.04
2018-05-16T08:16:30.906Z,67.87
2018-05-16T08:17:49.910Z,83.50
2018-05-16T08:18:28.509Z,82.03
2018-05-16T08:19:29.412Z,77.64
2018-05-16T08:20:29.417Z,83.50
2018-05-16T08:21:28.880Z,64.21
2018-05-16T08:22:31.368Z,58.11
2018-05-16T08:23:50.906Z,83.25
2018-05-16T08:24:29.920Z,65.43
2018-05-16T08:25:29.925Z,81.54
2018-05-16T08:26:29.526Z,54.69
2018-05-16T08:27:51.406Z,54.44
2018-05-16T08:28:51.407Z,82.03
2018-05-16T08:29:29.884Z,80.81
2018-05-16T08:33:03.568Z,84.23
2018-05-16T08:34:02.134Z,80.32
2018-05-16T08:37:47.896Z,83.74
2018-05-16T08:38:33.368Z,63.96
2018-05-16T08:39:37.326Z,85.45
2018-05-16T08:40:57.392Z,84.23
2018-05-16T08:41:34.394Z,83.25
2018-05-16T08:42:55.454Z,82.28
2018-05-16T08:43:34.897Z,61.04
2018-05-16T08:47:28.293Z,81.05
2018-05-16T08:48:06.319Z,86.43
2018-05-16T08:49:29.250Z,54.93
2018-05-16T08:50:08.801Z,80.57
2018-05-16T08:53:38.180Z,84.23
2018-05-16T08:54:38.181Z,85.94
2018-05-16T08:59:40.728Z,50.05
2018-05-16T09:00:44.354Z,80.57
2018-05-16T09:01:43.888Z,85.21
2018-05-16T09:02:41.115Z,79.83
2018-05-16T09:03:43.820Z,56.15
2018-05-16T09:04:41.878Z,60.55
2018-05-16T09:05:41.880Z,68.60
2018-05-16T09:06:45.312Z,83.01
2018-05-16T09:07:42.379Z,82.76
2018-05-16T09:08:42.379Z,83.25
2018-05-16T09:12:36.956Z,83.98
2018-05-16T09:15:59.675Z,83.01
2018-05-16T09:16:45.681Z,82.03
2018-05-16T09:17:45.280Z,81.79
2018-05-16T09:18:48.175Z,81.05
2018-05-16T09:19:48.109Z,83.01
2018-05-16T09:20:45.623Z,80.81
2018-05-16T09:22:07.676Z,82.76
2018-05-16T09:23:07.674Z,81.30
2018-05-16T09:23:46.677Z,80.81
2018-05-16T09:24:46.676Z,83.01
2018-05-16T09:25:46.673Z,82.28
2018-05-16T09:27:01.179Z,84.23
2018-05-16T09:28:09.659Z,84.47
2018-05-16T09:28:46.507Z,57.62
2018-05-16T09:29:47.179Z,83.25
2018-05-16T09:30:48.609Z,81.54
2018-05-16T09:31:47.676Z,70.31
2018-05-16T09:32:47.032Z,81.54
2018-05-16T09:33:47.677Z,83.50
2018-05-16T09:37:42.435Z,83.98
2018-05-16T09:38:19.441Z,82.03
2018-05-16T09:39:19.051Z,81.54
2018-05-16T09:40:20.014Z,84.96
2018-05-16T09:41:19.933Z,72.27
2018-05-16T09:42:19.418Z,83.74
2018-05-16T09:45:51.769Z,80.81
2018-05-16T09:46:51.677Z,86.43
2018-05-16T09:50:43.777Z,81.54
2018-05-16T09:51:23.462Z,84.47
2018-05-16T09:52:44.937Z,80.32
2018-05-16T09:53:46.936Z,67.87
2018-05-16T09:54:23.292Z,65.43
2018-05-16T09:55:23.942Z,73.49
2018-05-16T09:56:23.551Z,83.01
2018-05-16T09:57:45.437Z,81.30
2018-05-16T09:58:24.468Z,82.03
2018-05-16T09:59:38.935Z,83.74
2018-05-16T10:02:57.182Z,82.52
2018-05-16T10:09:01.419Z,56.40
2018-05-16T10:12:52.545Z,80.32
2018-05-16T10:13:52.548Z,84.96
2018-05-16T10:14:34.044Z,83.74
2018-05-16T10:18:03.429Z,70.56
2018-05-16T10:19:30.432Z,66.89
2018-05-16T10:20:09.952Z,49.80
2018-05-16T10:23:37.852Z,80.57
2018-05-16T10:24:36.324Z,55.66
2018-05-16T10:25:57.323Z,82.52
2018-05-16T10:27:00.460Z,82.52
2018-05-16T10:27:36.323Z,58.59
2018-05-16T10:28:36.379Z,78.13
2018-05-16T10:29:36.861Z,69.09
2018-05-16T10:30:36.855Z,66.65
2018-05-16T10:31:36.823Z,81.54
2018-05-16T10:32:36.823Z,82.52
2018-05-16T10:33:39.338Z,83.01
2018-05-16T10:34:37.436Z,83.01
2018-05-16T10:35:37.323Z,71.53
2018-05-16T10:36:37.323Z,73.24
2018-05-16T10:37:36.926Z,84.23
2018-05-16T10:38:58.827Z,81.54
2018-05-16T10:39:37.181Z,71.04
2018-05-16T10:40:37.824Z,81.54
2018-05-16T10:44:09.623Z,83.74
2018-05-16T10:47:42.359Z,83.50
2018-05-16T10:54:17.485Z,83.74
2018-05-16T10:55:20.503Z,79.10
2018-05-16T10:56:17.082Z,81.05
2018-05-16T10:57:18.025Z,64.70
2018-05-16T10:58:17.337Z,81.05
2018-05-16T11:02:52.672Z,79.35
2018-05-16T11:03:26.678Z,79.59
2018-05-16T11:04:31.597Z,80.57
2018-05-16T11:07:58.630Z,81.05
2018-05-16T11:09:19.427Z,81.79
2018-05-16T11:23:04.833Z,65.43
2018-05-16T11:24:04.833Z,83.50
2018-05-16T11:25:04.852Z,55.66
2018-05-16T11:26:07.856Z,82.28
2018-05-16T11:27:27.348Z,79.10
2018-05-16T11:28:05.334Z,55.42
2018-05-16T11:29:05.338Z,80.57
2018-05-16T11:30:05.879Z,81.79
2018-05-16T11:31:05.885Z,54.44
2018-05-16T11:32:05.851Z,79.59
2018-05-16T11:33:05.935Z,81.05
2018-05-16T11:34:26.839Z,55.42
2018-05-16T11:35:07.333Z,55.66
2018-05-16T11:36:06.401Z,81.30
2018-05-16T11:37:06.335Z,81.05
2018-05-16T11:38:06.338Z,80.81
2018-05-16T11:39:06.350Z,78.13
2018-05-16T11:41:06.849Z,81.79
2018-05-16T11:42:06.847Z,80.57
2018-05-16T11:43:27.845Z,81.79
2018-05-16T11:44:07.347Z,53.22
2018-05-16T11:45:07.351Z,84.23
2018-05-16T11:46:07.346Z,79.59
2018-05-16T11:47:07.352Z,85.45
2018-05-16T11:48:07.438Z,80.81
2018-05-16T11:49:07.838Z,82.28
2018-05-16T11:50:07.839Z,78.61
2018-05-16T11:51:07.844Z,83.01
2018-05-16T11:52:08.335Z,64.70
2018-05-16T11:53:08.851Z,83.50
2018-05-16T11:54:08.892Z,73.73
2018-05-16T11:55:08.368Z,85.45
2018-05-16T11:58:39.982Z,78.61
2018-05-16T12:02:12.241Z,71.04
2018-05-16T12:03:34.240Z,80.08
2018-05-16T12:04:32.842Z,83.01
2018-05-16T12:05:14.749Z,66.65
2018-05-16T12:06:12.094Z,84.72
2018-05-16T12:07:18.743Z,86.43
2018-05-16T12:12:16.463Z,82.76
2018-05-16T12:13:17.398Z,84.96
2018-05-16T12:14:16.953Z,72.02
2018-05-16T12:15:18.943Z,81.54
2018-05-16T12:16:16.945Z,84.47
2018-05-16T12:17:16.943Z,83.01
2018-05-16T12:18:18.443Z,60.30
2018-05-16T12:19:17.443Z,84.23
2018-05-16T12:20:17.443Z,80.57
2018-05-16T12:21:17.443Z,79.83
2018-05-16T12:22:19.942Z,83.50
2018-05-16T12:25:49.327Z,84.47
2018-05-16T12:27:13.273Z,81.30
2018-05-16T12:27:49.833Z,49.32
2018-05-16T12:28:49.881Z,83.01
2018-05-16T12:30:16.830Z,80.57
2018-05-16T12:30:49.196Z,78.61
2018-05-16T12:31:49.827Z,61.04
2018-05-16T12:32:50.326Z,84.72
2018-05-16T12:34:13.327Z,81.05
2018-05-16T12:34:50.327Z,64.94
2018-05-16T12:35:49.804Z,76.90
2018-05-16T12:36:49.912Z,84.47
2018-05-16T12:37:51.777Z,80.08
2018-05-16T12:38:50.830Z,79.10
2018-05-16T12:39:50.827Z,83.01
2018-05-16T12:40:50.828Z,66.41
2018-05-16T12:44:36.590Z,66.65
2018-05-16T12:45:22.589Z,49.56
2018-05-16T12:46:22.202Z,83.50
2018-05-16T12:47:22.289Z,81.30
2018-05-16T12:48:22.397Z,83.01
2018-05-16T12:51:53.984Z,67.63
2018-05-16T12:53:15.679Z,82.76
2018-05-16T12:53:54.679Z,84.23
2018-05-16T12:54:58.145Z,79.10
2018-05-16T12:55:55.180Z,80.08
2018-05-16T12:57:09.182Z,82.03
2018-05-16T12:57:55.179Z,82.52
2018-05-16T12:59:18.679Z,62.50
2018-05-16T12:59:55.681Z,54.93
2018-05-16T13:01:55.128Z,83.01
2018-05-16T13:02:56.183Z,84.96
2018-05-16T13:06:27.462Z,82.03
2018-05-16T13:07:41.954Z,83.01
2018-05-16T13:08:27.883Z,55.42
2018-05-16T13:09:49.380Z,82.03
2018-05-16T13:10:30.449Z,82.52
2018-05-16T13:11:34.449Z,81.79
2018-05-16T13:12:42.454Z,66.89
2018-05-16T13:13:32.880Z,84.72
2018-05-16T13:14:28.448Z,82.03
2018-05-16T13:15:28.948Z,79.59
2018-05-16T13:19:00.389Z,83.98
2018-05-16T13:20:00.346Z,82.52
2018-05-16T13:20:59.828Z,78.37
2018-05-16T13:24:33.031Z,78.61
2018-05-16T13:25:32.105Z,82.52
2018-05-16T13:26:32.096Z,82.03
2018-05-16T13:30:05.891Z,80.32
2018-05-16T13:31:05.845Z,80.08
2018-05-16T13:32:25.383Z,62.99
2018-05-16T13:33:27.318Z,81.79
2018-05-16T13:34:04.383Z,81.30
2018-05-16T13:35:24.840Z,58.84
2018-05-16T13:38:35.471Z,53.22
2018-05-16T13:39:36.100Z,81.05
2018-05-16T13:40:36.602Z,82.52
2018-05-16T13:41:57.603Z,82.03
2018-05-16T13:42:36.602Z,81.54
2018-05-16T13:43:38.034Z,83.74
2018-05-16T13:47:29.366Z,78.86
2018-05-16T13:48:08.377Z,82.03
2018-05-16T13:49:14.867Z,80.32
2018-05-16T13:50:29.866Z,82.03
2018-05-16T13:53:40.391Z,77.15
2018-05-16T13:54:40.399Z,78.61
2018-05-16T13:58:12.171Z,80.08
2018-05-16T13:59:12.170Z,90.09
2018-05-16T14:00:13.119Z,80.81
2018-05-16T14:01:14.600Z,80.57
2018-05-16T14:02:12.668Z,56.88
2018-05-16T14:03:12.695Z,80.57
2018-05-16T14:04:14.605Z,81.30
2018-05-16T14:05:13.168Z,80.81
2018-05-16T14:06:13.167Z,81.54
2018-05-16T14:07:13.168Z,80.57
2018-05-16T14:08:34.668Z,78.61
2018-05-16T14:09:34.676Z,62.26
2018-05-16T14:12:45.205Z,71.04
2018-05-16T14:13:45.210Z,82.76
2018-05-16T14:14:45.736Z,82.28
2018-05-16T14:15:48.636Z,82.03
2018-05-16T14:16:45.704Z,84.23
2018-05-16T14:17:45.186Z,87.16
2018-05-16T14:19:09.207Z,83.74
2018-05-16T14:19:45.435Z,56.15
2018-05-16T14:20:45.564Z,73.49
2018-05-16T14:21:45.738Z,76.90
2018-05-16T14:22:46.706Z,84.47
2018-05-16T14:23:45.950Z,51.27
2018-05-16T14:24:46.636Z,85.45
2018-05-16T14:28:18.346Z,83.98
2018-05-16T14:29:19.298Z,76.66
2018-05-16T14:30:18.812Z,73.49
2018-05-16T14:31:18.801Z,81.54
2018-05-16T14:32:18.801Z,68.85
2018-05-16T14:33:18.801Z,80.81
2018-05-16T14:34:29.233Z,78.13
2018-05-16T14:35:18.552Z,53.96
2018-05-16T14:36:19.301Z,77.15
2018-05-16T14:37:20.301Z,81.05
2018-05-16T14:40:51.088Z,81.54
2018-05-16T14:42:12.090Z,81.54
2018-05-16T14:42:50.906Z,58.11
2018-05-16T14:44:11.798Z,83.74
2018-05-16T14:45:12.588Z,81.54
2018-05-16T14:45:51.588Z,60.30
2018-05-16T14:47:13.096Z,84.23
2018-05-16T14:48:14.552Z,79.59
2018-05-16T14:49:19.585Z,79.10
2018-05-16T14:49:51.579Z,80.32
2018-05-16T14:51:12.645Z,82.03
2018-05-16T14:52:13.588Z,81.05
2018-05-16T14:58:16.533Z,82.03
2018-05-16T14:58:55.012Z,56.88
2018-05-16T14:59:57.496Z,81.54
2018-05-16T15:03:27.395Z,53.96
2018-05-16T15:04:27.394Z,79.59
2018-05-16T15:05:27.902Z,84.47
2018-05-16T15:06:41.912Z,81.54
2018-05-16T15:10:00.434Z,80.81
2018-05-16T15:10:59.431Z,80.57
2018-05-16T15:12:20.927Z,81.05
2018-05-16T15:13:01.380Z,81.05
2018-05-16T15:13:59.929Z,81.79
2018-05-16T15:14:59.929Z,81.54
2018-05-16T15:16:00.433Z,60.79
2018-05-16T15:17:02.427Z,85.21
2018-05-16T15:18:00.427Z,82.52
2018-05-16T15:19:01.860Z,81.54
2018-05-16T15:22:32.191Z,77.64
2018-05-16T15:23:32.191Z,82.28
2018-05-16T15:24:38.693Z,76.90
2018-05-16T15:25:32.684Z,79.83
2018-05-16T15:26:32.684Z,76.42
2018-05-16T15:27:32.689Z,81.30
2018-05-16T15:31:18.451Z,82.52
2018-05-16T15:32:04.453Z,80.32
2018-05-16T15:35:36.207Z,80.32
2018-05-16T15:36:36.243Z,82.76
2018-05-16T15:37:42.746Z,82.52
2018-05-16T15:38:36.002Z,82.28
2018-05-16T15:39:37.712Z,81.54
2018-05-16T15:40:50.750Z,81.79
2018-05-16T15:44:07.879Z,80.32
2018-05-16T15:45:30.951Z,80.32
2018-05-16T15:46:09.015Z,82.28
2018-05-16T15:51:32.867Z,82.52
2018-05-16T15:52:11.865Z,80.08
2018-05-16T15:55:43.644Z,82.52
2018-05-16T15:56:43.641Z,81.79
2018-05-16T16:03:08.424Z,82.03
2018-05-16T16:03:47.435Z,64.70
2018-05-16T16:04:47.924Z,80.81
2018-05-16T16:06:08.923Z,80.08
2018-05-16T16:06:47.933Z,80.57
2018-05-16T16:07:47.925Z,80.32
2018-05-16T16:11:19.037Z,82.03
2018-05-16T16:12:19.702Z,79.10
2018-05-16T16:13:20.198Z,83.74
2018-05-16T16:14:20.201Z,84.47
2018-05-16T16:15:20.197Z,80.32
2018-05-16T16:16:20.199Z,81.30
2018-05-16T16:19:53.960Z,78.37
2018-05-16T16:20:51.963Z,80.32
2018-05-16T16:24:23.733Z,79.35
2018-05-16T16:25:23.732Z,81.05
2018-05-16T16:26:30.233Z,85.69
2018-05-16T16:27:45.233Z,81.79
2018-05-16T16:31:18.808Z,81.05
2018-05-16T16:31:56.744Z,77.39
2018-05-16T16:32:56.247Z,81.79
2018-05-16T16:33:56.251Z,80.57
2018-05-16T16:34:56.264Z,83.25
2018-05-16T16:36:17.250Z,76.42
2018-05-16T16:39:28.028Z,79.10
2018-05-16T16:40:28.033Z,81.79
2018-05-16T16:41:28.525Z,84.23
2018-05-16T16:42:28.525Z,80.57
2018-05-16T16:43:28.525Z,76.66
2018-05-16T16:44:28.527Z,83.50
2018-05-16T16:45:29.026Z,79.83
2018-05-16T16:46:28.264Z,82.28
2018-05-16T16:47:31.031Z,82.03
2018-05-16T16:48:29.025Z,80.32
2018-05-16T16:52:15.292Z,47.85
2018-05-16T16:53:02.293Z,80.57
2018-05-16T16:54:03.246Z,57.13
2018-05-16T16:57:33.140Z,50.54
2018-05-16T16:58:33.139Z,79.59
2018-05-16T17:02:04.898Z,82.52
2018-05-16T17:03:04.898Z,64.94
2018-05-16T17:04:05.404Z,52.00
2018-05-16T17:05:05.425Z,80.32
2018-05-16T17:06:05.399Z,79.10
2018-05-16T17:07:06.863Z,83.98
2018-05-16T17:12:08.583Z,81.54
2018-05-16T17:13:08.584Z,47.12
2018-05-16T17:16:39.699Z,82.28
2018-05-16T17:18:02.349Z,79.10
2018-05-16T17:18:40.852Z,47.61
2018-05-16T17:20:01.062Z,82.28
2018-05-16T17:20:47.849Z,79.59
2018-05-16T17:21:40.858Z,80.57
2018-05-16T17:29:15.556Z,83.25
2018-05-16T17:30:15.590Z,66.16
2018-05-16T17:31:15.159Z,81.79
2018-05-16T17:35:08.433Z,84.72
2018-05-16T17:35:46.911Z,69.58
2018-05-16T17:39:19.190Z,80.32
2018-05-16T17:40:18.643Z,81.30
2018-05-16T17:41:20.664Z,82.03
2018-05-16T17:42:40.666Z,79.10
2018-05-16T17:43:19.025Z,78.86
2018-05-16T17:44:19.666Z,66.89
2018-05-16T17:45:20.166Z,81.79
2018-05-16T17:46:20.166Z,78.13
2018-05-16T17:47:20.166Z,82.76
2018-05-16T17:48:20.167Z,80.81
2018-05-16T17:49:20.667Z,77.39
2018-05-16T17:52:52.068Z,71.53